Edisto Island, SC

4:20 PM EDT on September 04, 2015 (GMT -0400)
Sandy Creek | | Change Station
CLOSE
Current Station
Personal Weather Station
Location: Edisto Island, SC
Elevation: 20 ft
Nearby Weather Stations

Elev 20 ft 32.54 °N, 80.33 °W | Updated 19 seconds ago

Partly Cloudy
Partly Cloudy
83.8 °F
Feels Like 96 °F
N
5.0
Wind Variable Wind from ENE
Gusts 6.0 mph

Today
High -- | Low -- °F
--% Chance of Precip.
Yesterday
High -- | Low -- °F
Precip. -- in
6:57 AM 7:42 PM
Waning Gibbous, 56% visible
Pressure 29.91 in
Visibility 7.0 miles
Clouds Clear
Heat Index 96 °F
Dew Point 79 °F
Humidity 86%
Rainfall 0.00 in
Snow Depth Not available.
UV 6 out of 12
Pollen 8.10 out of 12
Air Quality Not available.
Flu Activity Not available.
METAR KARW 042015Z AUTO 14005KT 7SM VCTS CLR 30/25 A2991 RMK AO2 LTG DSNT ALQS
Pressure 29.91 in
Visibility 7.0 miles
Clouds Clear
Heat Index 96 °F
Dew Point 79 °F
Humidity 86%
Rainfall 0.00 in
Snow Depth Not available.
UV 6 out of 12
Pollen 8.10 out of 12
Air Quality Not available.
Flu Activity Not available.
METAR KARW 042015Z AUTO 14005KT 7SM VCTS CLR 30/25 A2991 RMK AO2 LTG DSNT ALQS

10-Day Weather Forecast

×

Almanac

Astronomy

Sep. 04, 2015 Rise Set
Actual Time
Civil Twilight
Nautical Twilight
Astronomical Twilight
Moon
Length of Visible Light
Length of Day
Tomorrow will be .
, % of the Moon is Illuminated

Today's Extremes

State Highs State Lows

Community

WunderPhotos

Upload Photos

1,852,272 photos uploaded!

WunderBlogs® & News

Nearby

Air Quality

  Air Quality AQ Index Pollutant
Not available.

Snow Depth

Station Depth Elevation

Earthquake Activity

City Distance Mag. Time & Date
Minimum magnitude displayed is 2.5.

Coastal Water Temperatures

Place Temperature

Stations

Nearby Weather Stations

Station Location Temp. Windchill Dew Point Humidity Wind Precip. Elev Updated Type